Time;durP1;ratioP1;P1;durP2;ratioP2;P2;SDS_P1;SDS_P2;PMS_P1;PMS_P2;Temp;Humidity;BMP_temperature;BMP_pressure;BME280_temperature;BME280_humidity;BME280_pressure;Samples;Min_cycle;Max_cycle;Signal;HPM_P1;HPM_P2
2023/01/22 00:06:47;;;;;;;29.60;17.00;;;;;;;-0.34;100.00;100246.34;449501;1252;142634;-62
2023/01/22 00:16:52;;;;;;;27.70;17.00;;;;;;;-0.33;100.00;100260.95;450165;1251;143582;-61
2023/01/22 00:26:58;;;;;;;21.60;15.40;;;;;;;-0.33;100.00;100266.11;446920;1253;143286;-62
2023/01/22 00:37:04;;;;;;;28.70;16.20;;;;;;;-0.34;100.00;100273.34;446336;1251;143170;-61
2023/01/22 00:47:10;;;;;;;27.10;16.00;;;;;;;-0.31;100.00;100279.84;450363;1251;143447;-61
2023/01/22 00:57:20;;;;;;;26.70;15.20;;;;;;;-0.25;100.00;100282.57;443319;1251;144478;-61
2023/01/22 01:07:26;;;;;;;25.40;15.10;;;;;;;-0.24;100.00;100288.57;438999;1252;143015;-62
2023/01/22 01:17:32;;;;;;;23.90;14.60;;;;;;;-0.25;100.00;100289.45;437611;1255;142339;-62
2023/01/22 01:27:38;;;;;;;22.70;15.00;;;;;;;-0.29;100.00;100294.48;438606;1250;147385;-62
2023/01/22 01:37:44;;;;;;;24.00;12.20;;;;;;;-0.28;100.00;100300.15;437082;1251;144601;-60
2023/01/22 01:47:53;;;;;;;21.40;14.10;;;;;;;-0.26;100.00;100290.48;438296;1250;144612;-61
2023/01/22 01:58:05;;;;;;;19.10;11.70;;;;;;;-0.25;100.00;100287.90;436567;1251;142613;-62
2023/01/22 02:08:11;;;;;;;19.20;11.70;;;;;;;-0.29;100.00;100292.91;436916;1254;143400;-62
2023/01/22 02:18:17;;;;;;;22.00;12.00;;;;;;;-0.32;100.00;100296.90;435718;1251;142605;-60
2023/01/22 02:28:23;;;;;;;20.20;12.40;;;;;;;-0.34;100.00;100307.08;433536;1255;142611;-61
2023/01/22 02:38:29;;;;;;;30.40;14.70;;;;;;;-0.36;100.00;100312.77;435105;1252;142740;-59
2023/01/22 02:48:35;;;;;;;28.50;15.10;;;;;;;-0.39;100.00;100311.59;441552;1251;142777;-61
2023/01/22 02:58:41;;;;;;;28.00;15.60;;;;;;;-0.39;100.00;100311.93;436991;1254;198664;-61
2023/01/22 03:08:47;;;;;;;34.50;16.90;;;;;;;-0.37;100.00;100321.02;436289;1255;142230;-62
2023/01/22 03:29:16;;;;;;;29.10;17.10;;;;;;;-0.39;100.00;100324.49;440154;1252;143090;-61
2023/01/22 03:39:22;;;;;;;33.60;16.40;;;;;;;-0.39;100.00;100326.71;432917;1254;142415;-61
2023/01/22 03:49:28;;;;;;;28.90;16.20;;;;;;;-0.38;100.00;100341.67;433478;1251;143840;-61
2023/01/22 03:59:34;;;;;;;26.70;15.70;;;;;;;-0.40;100.00;100353.20;447259;1251;143340;-61
2023/01/22 04:09:40;;;;;;;31.90;16.10;;;;;;;-0.37;100.00;100366.95;438932;1252;148212;-62
2023/01/22 04:19:45;;;;;;;33.70;16.30;;;;;;;-0.35;100.00;100373.66;433636;1251;143071;-61
2023/01/22 04:29:51;;;;;;;36.80;16.70;;;;;;;-0.37;100.00;100386.05;436133;1255;148181;-62
2023/01/22 04:39:57;;;;;;;28.70;16.80;;;;;;;-0.39;100.00;100390.73;434659;1252;142731;-61
2023/01/22 04:50:03;;;;;;;29.10;16.80;;;;;;;-0.43;100.00;100396.60;434562;1255;143198;-62
2023/01/22 05:00:13;;;;;;;24.90;14.30;;;;;;;-0.46;100.00;100397.83;435337;1255;200041;-61
2023/01/22 05:10:19;;;;;;;20.80;14.10;;;;;;;-0.46;100.00;100394.38;438066;1254;144276;-62
2023/01/22 05:20:26;;;;;;;19.20;12.20;;;;;;;-0.44;100.00;100398.83;438846;1255;142173;-62
2023/01/22 05:30:32;;;;;;;13.80;10.10;;;;;;;-0.44;100.00;100419.30;433428;1255;183677;-60
2023/01/22 05:40:37;;;;;;;13.10;9.80;;;;;;;-0.45;100.00;100424.64;436223;1254;146108;-62
2023/01/22 05:50:43;;;;;;;14.90;10.20;;;;;;;-0.47;100.00;100428.26;436492;1254;142873;-61
2023/01/22 06:00:51;;;;;;;18.00;11.70;;;;;;;-0.47;100.00;100435.48;436099;1256;142035;-61
2023/01/22 06:11:05;;;;;;;17.30;10.70;;;;;;;-0.46;100.00;100443.58;434973;1255;144400;-61
2023/01/22 06:21:10;;;;;;;17.90;11.30;;;;;;;-0.46;100.00;100444.27;445858;1251;142597;-61
2023/01/22 06:31:16;;;;;;;17.20;12.00;;;;;;;-0.46;100.00;100454.91;449378;1251;144978;-62
2023/01/22 06:41:23;;;;;;;19.40;11.50;;;;;;;-0.42;100.00;100478.30;450147;1251;143451;-62
2023/01/22 06:51:30;;;;;;;19.10;11.60;;;;;;;-0.41;100.00;100482.43;449582;1251;148265;-61
2023/01/22 07:01:36;;;;;;;19.10;11.90;;;;;;;-0.38;100.00;100497.56;440885;1251;144012;-61
2023/01/22 07:11:42;;;;;;;16.50;9.90;;;;;;;-0.37;100.00;100504.76;450202;1251;143100;-62
2023/01/22 07:21:48;;;;;;;18.70;10.80;;;;;;;-0.33;100.00;100515.60;449485;1251;145933;-62
2023/01/22 07:31:54;;;;;;;21.20;12.70;;;;;;;-0.28;100.00;100528.30;450218;1251;143329;-62
2023/01/22 07:42:00;;;;;;;17.10;11.40;;;;;;;-0.24;100.00;100541.88;433555;1251;146578;-62
2023/01/22 07:52:06;;;;;;;15.40;11.30;;;;;;;-0.20;100.00;100547.55;449304;1251;147747;-61
2023/01/22 08:02:14;;;;;;;14.90;11.90;;;;;;;-0.18;100.00;100554.42;437590;1251;143394;-61
2023/01/22 08:12:20;;;;;;;16.00;11.30;;;;;;;-0.11;100.00;100562.66;442628;1251;143430;-62
2023/01/22 08:22:26;;;;;;;16.60;11.60;;;;;;;-0.04;100.00;100572.44;450156;1251;152235;-61
2023/01/22 08:32:32;;;;;;;13.50;11.20;;;;;;;0.02;100.00;100579.30;450044;1251;143094;-61
2023/01/22 08:42:38;;;;;;;18.50;12.10;;;;;;;0.11;100.00;100593.91;448680;1251;142566;-62
2023/01/22 08:52:43;;;;;;;20.30;11.90;;;;;;;0.16;100.00;100602.99;443745;1251;144448;-61
2023/01/22 09:02:49;;;;;;;18.70;11.70;;;;;;;0.16;100.00;100619.35;450026;1251;143141;-62
2023/01/22 09:12:58;;;;;;;18.40;11.80;;;;;;;0.18;100.00;100625.38;443012;1250;143620;-62
2023/01/22 09:23:04;;;;;;;18.70;13.50;;;;;;;0.27;100.00;100630.66;442431;1251;142631;-64
2023/01/22 09:33:10;;;;;;;23.90;15.10;;;;;;;0.31;100.00;100629.27;450080;1250;143055;-62
2023/01/22 09:43:27;;;;;;;23.10;14.10;;;;;;;0.32;100.00;100630.83;449160;1251;142932;-63
2023/01/22 09:53:34;;;;;;;21.10;14.20;;;;;;;0.34;100.00;100630.13;450145;1251;143170;-62
2023/01/22 10:03:44;;;;;;;20.20;15.40;;;;;;;0.40;100.00;100634.05;449345;1250;144812;-63
2023/01/22 10:13:54;;;;;;;22.70;17.70;;;;;;;0.45;100.00;100637.30;435145;1254;142986;-62
2023/01/22 10:24:00;;;;;;;19.30;13.60;;;;;;;0.49;100.00;100626.59;433343;1254;143213;-62
2023/01/22 10:34:14;;;;;;;21.20;15.10;;;;;;;0.65;100.00;100621.33;438981;1250;147352;-61
2023/01/22 10:44:22;;;;;;;23.90;15.20;;;;;;;0.71;100.00;100624.40;449409;1250;142903;-60
2023/01/22 10:54:32;;;;;;;17.90;11.40;;;;;;;0.78;100.00;100620.20;449266;1251;144027;-62
2023/01/22 11:04:38;;;;;;;16.20;11.90;;;;;;;0.86;100.00;100617.73;450092;1251;144227;-62
2023/01/22 11:14:45;;;;;;;19.30;12.60;;;;;;;0.92;100.00;100607.86;450095;1251;144097;-62
2023/01/22 11:24:51;;;;;;;19.50;12.90;;;;;;;1.09;100.00;100600.83;449373;1250;143254;-63
2023/01/22 11:35:10;;;;;;;25.60;14.90;;;;;;;1.09;100.00;100602.38;447790;1251;143405;-62
2023/01/22 11:45:36;;;;;;;23.80;15.50;;;;;;;0.76;100.00;100601.77;450217;1251;143636;-62
2023/01/22 11:56:09;;;;;;;25.70;16.10;;;;;;;0.73;100.00;100609.73;440315;1251;211557;-63
2023/01/22 12:06:35;;;;;;;28.50;18.60;;;;;;;0.66;100.00;100617.35;446963;1251;143383;-62
2023/01/22 12:16:50;;;;;;;28.70;17.20;;;;;;;0.55;100.00;100622.08;449869;1251;144297;-63
2023/01/22 12:27:01;;;;;;;29.50;19.40;;;;;;;0.49;100.00;100629.01;450121;1251;143371;-63
2023/01/22 12:37:12;;;;;;;31.50;19.70;;;;;;;0.47;100.00;100627.29;449412;1251;143993;-63
2023/01/22 12:47:21;;;;;;;29.80;20.60;;;;;;;0.47;100.00;100631.25;450134;1251;142808;-63
2023/01/22 12:57:36;;;;;;;33.20;19.70;;;;;;;0.43;100.00;100639.55;449332;1251;144445;-63
2023/01/22 13:07:42;;;;;;;32.50;21.30;;;;;;;0.36;100.00;100649.39;450104;1251;144602;-64
2023/01/22 13:17:57;;;;;;;36.40;20.80;;;;;;;0.25;100.00;100651.34;450198;1250;145898;-62
2023/01/22 13:28:17;;;;;;;29.90;19.70;;;;;;;0.20;100.00;100659.12;449385;1251;143970;-62
2023/01/22 13:38:25;;;;;;;34.70;22.20;;;;;;;0.17;100.00;100662.92;450216;1251;143204;-63
2023/01/22 13:48:31;;;;;;;34.90;22.50;;;;;;;0.09;100.00;100663.28;449396;1251;144139;-62
2023/01/22 13:58:40;;;;;;;35.60;23.60;;;;;;;0.11;100.00;100661.39;450190;1251;143157;-63
2023/01/22 14:08:56;;;;;;;36.80;25.50;;;;;;;0.12;100.00;100667.93;450183;1250;147009;-62
2023/01/22 14:19:03;;;;;;;34.80;22.80;;;;;;;0.14;100.00;100675.50;449406;1251;143446;-63
2023/01/22 14:29:09;;;;;;;30.00;22.00;;;;;;;0.10;100.00;100680.85;450220;1251;143426;-62
2023/01/22 14:39:17;;;;;;;31.90;23.00;;;;;;;0.07;100.00;100681.38;450111;1251;142865;-62
2023/01/22 14:49:23;;;;;;;32.10;20.90;;;;;;;0.02;100.00;100694.65;449655;1251;144140;-65
2023/01/22 14:59:29;;;;;;;36.80;23.00;;;;;;;-0.04;100.00;100703.96;437659;1252;142402;-62
2023/01/22 15:09:35;;;;;;;37.80;23.60;;;;;;;-0.10;100.00;100729.79;438455;1250;143859;-61
2023/01/22 15:19:41;;;;;;;32.40;22.10;;;;;;;-0.16;100.00;100752.70;449418;1251;142899;-62
2023/01/22 15:29:48;;;;;;;40.00;25.00;;;;;;;-0.17;100.00;100761.65;436594;1251;167767;-62
2023/01/22 15:39:54;;;;;;;42.70;25.30;;;;;;;-0.25;100.00;100761.30;447953;1251;201094;-62
2023/01/22 15:50:00;;;;;;;34.90;22.60;;;;;;;-0.26;100.00;100769.05;450265;1251;143198;-63
2023/01/22 16:00:10;;;;;;;39.80;21.60;;;;;;;-0.29;100.00;100782.30;450154;1251;145340;-62
2023/01/22 16:10:16;;;;;;;34.70;21.30;;;;;;;-0.30;100.00;100783.33;449591;1251;147471;-62
2023/01/22 16:20:22;;;;;;;35.50;21.20;;;;;;;-0.33;100.00;100791.94;450076;1251;142834;-63
2023/01/22 16:30:28;;;;;;;43.80;26.40;;;;;;;-0.34;100.00;100802.45;449425;1251;143458;-63
2023/01/22 16:40:34;;;;;;;42.30;26.00;;;;;;;-0.37;100.00;100806.91;450217;1251;143233;-63
2023/01/22 16:50:40;;;;;;;38.60;24.10;;;;;;;-0.40;100.00;100811.55;450248;1251;144550;-63
2023/01/22 17:00:48;;;;;;;40.70;25.30;;;;;;;-0.43;100.00;100812.23;449413;1251;142565;-63
2023/01/22 17:10:54;;;;;;;38.70;25.30;;;;;;;-0.45;100.00;100821.53;450163;1252;144590;-63
2023/01/22 17:21:03;;;;;;;40.50;22.80;;;;;;;-0.46;100.00;100834.08;450098;1250;202679;-63
2023/01/22 17:31:14;;;;;;;40.10;25.30;;;;;;;-0.50;100.00;100842.85;449371;1250;147807;-63
2023/01/22 17:41:22;;;;;;;37.60;24.40;;;;;;;-0.50;100.00;100854.91;450075;1251;147513;-63
2023/01/22 17:51:29;;;;;;;33.30;23.10;;;;;;;-0.52;100.00;100859.20;439947;1254;144122;-62
2023/01/22 18:01:37;;;;;;;34.30;22.60;;;;;;;-0.54;100.00;100860.73;440300;1251;148853;-62
2023/01/22 18:11:44;;;;;;;36.80;23.20;;;;;;;-0.57;100.00;100866.74;444230;1255;143139;-61
2023/01/22 18:21:49;;;;;;;;;;;;;;;-0.60;100.00;100867.09;448037;1251;144406;-62
2023/01/22 18:31:55;;;;;;;35.10;21.10;;;;;;;-0.59;100.00;100876.02;450558;1252;130170;-63
2023/01/22 18:42:00;;;;;;;32.20;20.50;;;;;;;-0.56;100.00;100889.45;448681;1250;143073;-63
2023/01/22 18:52:07;;;;;;;34.30;22.60;;;;;;;-0.52;100.00;100896.51;449137;1251;143886;-62
2023/01/22 19:02:16;;;;;;;31.70;22.50;;;;;;;-0.50;100.00;100913.38;450184;1251;143554;-62
2023/01/22 19:12:22;;;;;;;31.30;20.30;;;;;;;-0.46;100.00;100914.95;449500;1252;144023;-62
2023/01/22 19:22:27;;;;;;;29.20;20.10;;;;;;;-0.45;100.00;100918.73;450273;1252;143488;-61
2023/01/22 19:32:36;;;;;;;30.80;20.40;;;;;;;-0.45;100.00;100926.30;450288;1251;143438;-61
2023/01/22 19:42:45;;;;;;;29.40;20.10;;;;;;;-0.44;100.00;100928.71;449447;1252;142984;-62
2023/01/22 19:52:51;;;;;;;26.40;17.80;;;;;;;-0.44;100.00;100940.59;450327;1251;143732;-62
2023/01/22 20:02:56;;;;;;;26.70;19.50;;;;;;;-0.42;100.00;100942.65;445240;1253;188259;-61
2023/01/22 20:13:02;;;;;;;28.80;19.00;;;;;;;-0.43;100.00;100942.65;441523;1255;144661;-62
2023/01/22 20:23:08;;;;;;;27.40;18.70;;;;;;;-0.45;100.00;100949.35;433133;1255;143116;-63
2023/01/22 20:33:14;;;;;;;33.60;22.10;;;;;;;-0.46;100.00;100961.91;436273;1251;145746;-63
2023/01/22 20:43:20;;;;;;;33.70;20.80;;;;;;;-0.52;100.00;100965.69;440113;1251;144261;-62
2023/01/22 20:53:28;;;;;;;30.70;18.10;;;;;;;-0.53;100.00;100976.16;450260;1251;141836;-61
2023/01/22 21:03:35;;;;;;;32.60;20.60;;;;;;;-0.56;100.00;100979.25;444313;1253;143236;-63
2023/01/22 21:13:41;;;;;;;30.10;21.60;;;;;;;-0.58;100.00;100983.20;450182;1251;143631;-63
2023/01/22 21:23:48;;;;;;;35.50;22.00;;;;;;;-0.60;100.00;100989.38;439611;1253;143542;-62
2023/01/22 21:34:01;;;;;;;30.80;19.60;;;;;;;-0.60;100.00;100976.30;433503;1253;142475;-62
2023/01/22 21:54:35;;;;;;;29.60;18.30;;;;;;;-0.65;100.00;100991.77;449432;1252;143267;-62
2023/01/22 22:04:41;;;;;;;27.70;18.20;;;;;;;-0.65;100.00;101004.84;450278;1253;142667;-61
2023/01/22 22:14:47;;;;;;;27.70;17.60;;;;;;;-0.65;100.00;101020.83;450116;1255;143578;-61
2023/01/22 22:24:53;;;;;;;25.50;16.00;;;;;;;-0.65;100.00;101029.25;449539;1255;147609;-62
2023/01/22 22:34:59;;;;;;;27.10;16.90;;;;;;;-0.62;100.00;101041.66;450326;1251;142969;-62
2023/01/22 22:45:06;;;;;;;27.50;16.80;;;;;;;-0.62;100.00;101054.21;450258;1251;143895;-62
2023/01/22 22:55:12;;;;;;;29.30;17.70;;;;;;;-0.63;100.00;101054.38;449408;1251;143631;-62
2023/01/22 23:05:18;;;;;;;29.20;17.00;;;;;;;-0.67;100.00;101050.58;450069;1254;143846;-62
2023/01/22 23:15:26;;;;;;;31.80;18.50;;;;;;;-0.67;100.00;101049.55;449285;1251;144800;-61
2023/01/22 23:25:32;;;;;;;32.40;18.50;;;;;;;-0.69;100.00;101056.23;450234;1251;144654;-61
2023/01/22 23:35:38;;;;;;;34.70;21.00;;;;;;;-0.71;100.00;101067.06;438362;1251;143236;-63
2023/01/22 23:45:44;;;;;;;38.60;20.30;;;;;;;-0.74;100.00;101062.23;433095;1254;143770;-61
2023/01/22 23:55:49;;;;;;;35.10;18.20;;;;;;;-0.76;100.00;101067.89;437033;1251;144195;-61
